Time;durP1;ratioP1;P1;durP2;ratioP2;P2;SDS_P1;SDS_P2;PMS_P1;PMS_P2;Temp;Humidity;BMP_temperature;BMP_pressure;BME280_temperature;BME280_humidity;BME280_pressure;Samples;Min_cycle;Max_cycle;Signal;HPM_P1;HPM_P2
2023/07/07 00:04:33;;;;;;;2.58;2.13;;;;;;;15.98;67.07;100406.75;10585479;28;20451;-76
2023/07/07 00:09:35;;;;;;;4.00;2.00;;;;;;;15.64;68.30;100417.16;10585528;28;20054;-75
2023/07/07 00:14:37;;;;;;;2.47;1.90;;;;;;;15.63;69.07;100415.41;10569848;28;20044;-76
2023/07/07 00:19:39;;;;;;;2.17;1.92;;;;;;;15.75;69.15;100414.00;10586563;28;20063;-76
2023/07/07 00:24:41;;;;;;;4.13;2.05;;;;;;;15.85;69.36;100417.97;10586542;28;20401;-76
2023/07/07 00:29:43;;;;;;;2.80;1.80;;;;;;;15.63;69.66;100422.53;10568577;28;20050;-75
2023/07/07 00:34:45;;;;;;;2.47;1.98;;;;;;;15.47;71.34;100418.84;10566095;28;20129;-76
2023/07/07 00:39:47;;;;;;;3.95;2.10;;;;;;;15.78;70.34;100421.81;10548811;28;20488;-75
2023/07/07 00:45:08;;;;;;;2.83;2.00;;;;;;;15.50;71.40;100426.66;10585064;28;20074;-75
2023/07/07 00:50:12;;;;;;;4.43;2.55;;;;;;;15.46;72.08;100433.03;10586537;28;20055;-76
2023/07/07 00:55:30;;;;;;;2.70;2.17;;;;;;;15.38;72.66;100431.56;10567948;28;20052;-75
2023/07/07 01:00:35;;;;;;;3.47;2.20;;;;;;;15.57;71.91;100434.22;10569316;28;20046;-76
2023/07/07 01:05:38;;;;;;;3.60;2.50;;;;;;;15.41;72.40;100435.03;10585186;28;20044;-76
2023/07/07 01:10:40;;;;;;;3.30;2.20;;;;;;;15.22;73.21;100434.97;10583518;28;20039;-76
2023/07/07 01:16:18;;;;;;;3.22;2.30;;;;;;;14.92;74.72;100448.66;10582178;28;20043;-76
2023/07/07 01:21:29;;;;;;;2.10;1.75;;;;;;;14.98;74.18;100442.22;10565602;28;20101;-76
2023/07/07 01:26:51;;;;;;;2.15;1.77;;;;;;;14.94;74.21;100441.47;10551385;28;20075;-76
2023/07/07 01:31:58;;;;;;;1.98;1.85;;;;;;;14.72;75.84;100430.97;10551096;28;20040;-75
2023/07/07 01:36:59;;;;;;;;;;;;;;;14.57;76.85;100442.19;10567543;28;20083;-75
2023/07/07 01:42:09;;;;;;;2.40;1.98;;;;;;;14.71;76.44;100439.81;10583938;28;19969;-75
2023/07/07 01:47:15;;;;;;;4.68;1.90;;;;;;;14.76;76.54;100443.13;10582261;28;20044;-76
2023/07/07 01:52:31;;;;;;;4.18;2.33;;;;;;;14.60;77.75;100429.69;10583447;28;20497;-75
2023/07/07 01:57:34;;;;;;;3.55;2.25;;;;;;;14.47;78.70;100441.66;10582508;28;20126;-75
2023/07/07 02:02:36;;;;;;;3.00;2.28;;;;;;;14.31;79.62;100437.94;10565670;28;20040;-75
2023/07/07 02:07:39;;;;;;;3.13;2.30;;;;;;;14.21;80.10;100440.09;10564459;28;20047;-75
2023/07/07 02:12:40;;;;;;;6.82;2.72;;;;;;;14.35;79.44;100453.63;10582916;28;20504;-75
2023/07/07 02:17:42;;;;;;;7.28;3.88;;;;;;;14.10;80.31;100442.31;10583792;28;20083;-76
2023/07/07 02:22:44;;;;;;;5.35;4.88;;;;;;;14.13;80.43;100458.06;10582333;28;20036;-76
2023/07/07 02:27:46;;;;;;;5.78;5.10;;;;;;;14.22;79.60;100444.47;10566223;28;20451;-76
2023/07/07 02:32:47;;;;;;;5.85;5.35;;;;;;;14.00;81.01;100446.25;10588800;28;20042;-76
2023/07/07 02:37:49;;;;;;;5.38;4.75;;;;;;;14.05;80.37;100447.78;10589592;28;20043;-76
2023/07/07 02:42:53;;;;;;;7.47;3.97;;;;;;;14.04;80.60;100446.06;10572768;28;20044;-76
2023/07/07 02:47:55;;;;;;;5.32;3.97;;;;;;;13.92;81.55;100445.69;10573331;28;20047;-76
2023/07/07 02:52:56;;;;;;;4.03;3.22;;;;;;;13.91;81.47;100444.81;10573147;28;20040;-76
2023/07/07 02:57:58;;;;;;;4.63;3.17;;;;;;;13.85;82.11;100445.03;10570832;28;20479;-76
2023/07/07 03:03:00;;;;;;;4.70;3.42;;;;;;;13.96;81.27;100442.00;10589074;28;20068;-76
2023/07/07 03:08:02;;;;;;;4.10;3.25;;;;;;;13.86;81.92;100449.44;10588257;28;20047;-76
2023/07/07 03:13:04;;;;;;;4.57;3.47;;;;;;;13.70;83.25;100451.78;10587542;28;20036;-76
2023/07/07 03:18:14;;;;;;;4.22;3.00;;;;;;;13.55;84.17;100463.78;10572137;28;20064;-76
2023/07/07 03:23:20;;;;;;;5.13;3.05;;;;;;;13.48;85.38;100467.56;10571768;28;20512;-76
2023/07/07 03:28:22;;;;;;;3.28;2.97;;;;;;;13.58;85.06;100474.22;10571407;28;20065;-76
2023/07/07 03:33:24;;;;;;;2.90;2.67;;;;;;;13.69;84.38;100480.91;10569535;28;20044;-77
2023/07/07 03:38:26;;;;;;;4.03;3.03;;;;;;;13.64;85.12;100489.00;10569743;28;20097;-75
2023/07/07 03:43:28;;;;;;;4.35;3.72;;;;;;;13.69;85.00;100484.41;10570663;28;20059;-75
2023/07/07 03:48:30;;;;;;;3.85;2.53;;;;;;;13.63;84.02;100488.16;10570207;28;20039;-76
2023/07/07 03:53:32;;;;;;;3.28;2.30;;;;;;;13.76;83.19;100491.16;10567885;28;20031;-76
2023/07/07 03:58:37;;;;;;;4.40;2.67;;;;;;;13.78;82.16;100493.78;10585278;28;20048;-76
2023/07/07 04:03:38;;;;;;;3.50;2.67;;;;;;;13.99;80.34;100489.44;10585771;28;20456;-76
2023/07/07 04:08:43;;;;;;;4.22;2.58;;;;;;;14.20;78.45;100491.25;10567582;28;20047;-76
2023/07/07 04:13:46;;;;;;;2.78;2.33;;;;;;;14.43;76.18;100495.59;10567900;28;20066;-76
2023/07/07 04:18:54;;;;;;;5.07;2.60;;;;;;;14.11;78.18;100503.03;10586913;28;20493;-75
2023/07/07 04:24:00;;;;;;;2.75;2.28;;;;;;;14.17;79.35;100493.19;10567671;28;20509;-75
2023/07/07 04:29:02;;;;;;;2.72;2.25;;;;;;;14.41;77.84;100499.25;10566654;28;20051;-75
2023/07/07 04:34:05;;;;;;;3.92;2.15;;;;;;;14.80;74.15;100494.16;10583948;28;20067;-76
2023/07/07 04:39:07;;;;;;;3.90;2.40;;;;;;;15.05;72.96;100502.78;10566280;28;20050;-76
2023/07/07 04:44:09;;;;;;;2.40;2.13;;;;;;;14.80;73.72;100507.38;10584589;28;20538;-76
2023/07/07 04:49:11;;;;;;;3.40;2.55;;;;;;;14.80;74.16;100508.25;10583915;28;20558;-76
2023/07/07 04:54:13;;;;;;;3.38;2.42;;;;;;;14.85;74.14;100505.41;10583631;28;20127;-75
2023/07/07 04:59:16;;;;;;;4.72;2.30;;;;;;;14.95;74.48;100509.38;10565776;28;20578;-76
2023/07/07 05:04:18;;;;;;;4.78;2.78;;;;;;;15.11;73.28;100512.25;10565232;28;20043;-76
2023/07/07 05:09:20;;;;;;;3.40;2.30;;;;;;;15.35;72.60;100512.97;10582955;28;20063;-76
2023/07/07 05:14:22;;;;;;;2.88;2.13;;;;;;;15.53;71.99;100514.78;10582908;28;20059;-75
2023/07/07 05:19:24;;;;;;;4.90;2.10;;;;;;;16.12;69.27;100513.91;10565737;28;20043;-75
2023/07/07 05:24:25;;;;;;;2.20;2.00;;;;;;;16.37;66.80;100510.91;10583943;28;20537;-77
2023/07/07 05:29:27;;;;;;;4.10;2.28;;;;;;;16.80;64.46;100521.28;10585762;28;20130;-76
2023/07/07 05:34:29;;;;;;;4.07;2.50;;;;;;;17.54;60.88;100523.69;10567569;28;20047;-76
2023/07/07 05:39:31;;;;;;;3.10;1.83;;;;;;;18.30;57.53;100516.00;10586064;28;20043;-72
2023/07/07 05:44:32;;;;;;;2.42;2.15;;;;;;;18.74;56.45;100526.81;10583860;28;20044;-73
2023/07/07 05:49:34;;;;;;;3.90;2.40;;;;;;;18.61;57.13;100534.63;10566274;28;20463;-73
2023/07/07 05:54:36;;;;;;;1.88;1.50;;;;;;;19.51;55.75;100541.78;10583613;28;20051;-73
2023/07/07 05:59:38;;;;;;;4.20;1.70;;;;;;;19.77;52.50;100542.88;10583681;28;20044;-73
2023/07/07 06:04:40;;;;;;;3.65;1.70;;;;;;;20.02;53.46;100544.88;10590677;28;20048;-73
2023/07/07 06:09:49;;;;;;;2.15;1.70;;;;;;;20.62;50.87;100549.94;10574049;28;20044;-73
2023/07/07 06:14:50;;;;;;;2.58;1.80;;;;;;;20.96;50.61;100544.19;10592109;28;20032;-73
2023/07/07 06:19:52;;;;;;;4.40;2.13;;;;;;;21.49;49.43;100553.94;10573473;28;20151;-73
2023/07/07 06:24:54;;;;;;;2.63;1.92;;;;;;;21.84;47.64;100562.19;10589535;28;20131;-72
2023/07/07 06:29:56;;;;;;;4.28;2.13;;;;;;;21.36;47.74;100559.28;10589436;28;20489;-73
2023/07/07 06:34:58;;;;;;;4.18;2.10;;;;;;;22.01;49.04;100557.47;10572658;28;20040;-72
2023/07/07 06:40:00;;;;;;;3.40;2.10;;;;;;;22.61;46.11;100557.53;10555481;28;20059;-74
2023/07/07 06:45:01;;;;;;;3.08;1.83;;;;;;;22.72;44.47;100563.97;10590473;28;20596;-73
2023/07/07 06:50:04;;;;;;;7.63;1.60;;;;;;;22.70;45.78;100555.16;10590020;28;20044;-73
2023/07/07 06:55:06;;;;;;;2.40;1.63;;;;;;;23.16;43.90;100555.28;10590989;28;20043;-73
2023/07/07 07:00:09;;;;;;;2.67;1.63;;;;;;;23.65;42.11;100562.28;10590991;28;20039;-73
2023/07/07 07:05:11;;;;;;;2.63;1.83;;;;;;;24.26;39.97;100562.78;10589887;28;20043;-73
2023/07/07 07:10:13;;;;;;;3.17;1.40;;;;;;;24.55;38.93;100565.81;10589518;28;20035;-73
2023/07/07 07:15:15;;;;;;;2.97;2.10;;;;;;;24.58;39.36;100564.72;10571697;28;20075;-72
2023/07/07 07:20:17;;;;;;;6.22;1.80;;;;;;;24.95;38.87;100562.50;10591537;28;20036;-72
2023/07/07 07:25:20;;;;;;;4.25;1.90;;;;;;;24.78;39.27;100563.06;10592462;28;20071;-72
2023/07/07 07:30:21;;;;;;;7.57;1.70;;;;;;;24.97;38.84;100571.31;10573194;28;20044;-72
2023/07/07 07:35:23;;;;;;;5.05;1.45;;;;;;;25.20;38.12;100561.34;10589679;28;20047;-73
2023/07/07 07:40:25;;;;;;;4.88;1.73;;;;;;;25.01;37.81;100559.28;10588574;28;20039;-73
2023/07/07 07:45:27;;;;;;;9.38;2.60;;;;;;;24.64;39.13;100556.97;10589425;28;20074;-72
2023/07/07 07:50:31;;;;;;;2.55;1.40;;;;;;;25.33;38.63;100566.53;10588872;28;20062;-72
2023/07/07 07:55:33;;;;;;;2.30;1.52;;;;;;;25.49;38.25;100561.53;10588615;28;20044;-72
2023/07/07 08:00:34;;;;;;;16.08;2.20;;;;;;;25.58;37.94;100554.50;10588663;28;20042;-73
2023/07/07 08:05:36;;;;;;;2.13;1.23;;;;;;;25.59;36.91;100556.22;10570166;28;20512;-73
2023/07/07 08:10:39;;;;;;;2.00;1.55;;;;;;;26.57;35.41;100559.22;10590120;28;20439;-73
2023/07/07 08:15:42;;;;;;;5.45;1.50;;;;;;;26.89;37.08;100556.28;10589848;28;20520;-73
2023/07/07 08:20:44;;;;;;;3.03;1.45;;;;;;;26.77;35.54;100554.69;10590188;28;20035;-74
2023/07/07 08:25:46;;;;;;;4.57;1.55;;;;;;;26.78;34.30;100545.59;10590057;28;20399;-73
2023/07/07 08:31:08;;;;;;;3.15;1.50;;;;;;;27.01;34.87;100551.59;10570485;28;20043;-73
2023/07/07 08:36:10;;;;;;;2.50;1.10;;;;;;;27.50;34.65;100554.28;10589600;28;20044;-73
2023/07/07 08:41:12;;;;;;;1.67;1.50;;;;;;;27.74;33.63;100559.22;10589523;28;20093;-72
2023/07/07 08:46:31;;;;;;;1.92;1.40;;;;;;;27.90;32.12;100554.91;10588910;28;20067;-73
2023/07/07 08:51:42;;;;;;;5.75;1.67;;;;;;;27.96;33.37;100558.00;10569925;28;20065;-73
2023/07/07 08:57:10;;;;;;;2.25;1.67;;;;;;;27.97;31.88;100552.44;10585814;28;20047;-73
2023/07/07 09:02:36;;;;;;;2.72;1.70;;;;;;;27.65;32.91;100555.53;10584961;28;20437;-73
2023/07/07 09:07:46;;;;;;;3.65;1.75;;;;;;;28.02;32.44;100546.59;10587175;28;20074;-72
2023/07/07 09:12:59;;;;;;;3.00;1.80;;;;;;;28.56;31.33;100544.94;10584668;28;20051;-72
2023/07/07 09:18:35;;;;;;;2.92;1.60;;;;;;;28.43;31.60;100549.88;10566451;28;20044;-72
2023/07/07 09:23:40;;;;;;;3.30;1.40;;;;;;;29.13;32.75;100553.63;10414401;28;20061;-73
2023/07/07 09:28:47;;;;;;;3.97;1.73;;;;;;;29.38;31.30;100549.25;10414617;28;20507;-74
2023/07/07 09:33:50;;;;;;;2.10;1.58;;;;;;;29.80;28.74;100545.84;10415931;28;20132;-73
2023/07/07 09:38:57;;;;;;;1.50;1.40;;;;;;;29.62;28.44;100544.06;10413652;28;20077;-74
2023/07/07 09:44:17;;;;;;;4.05;1.40;;;;;;;30.27;27.10;100540.00;10413956;28;20050;-74
2023/07/07 09:49:38;;;;;;;2.60;1.58;;;;;;;30.04;29.09;100542.41;10413617;28;20525;-73
2023/07/07 09:54:43;;;;;;;1.48;1.35;;;;;;;30.36;30.60;100533.56;10414662;28;20052;-73
2023/07/07 09:59:48;;;;;;;2.08;1.38;;;;;;;30.07;27.01;100537.53;10562720;28;20125;-73
2023/07/07 10:05:05;;;;;;;2.03;1.30;;;;;;;30.11;26.99;100533.47;10585900;28;20382;-73
2023/07/07 10:10:13;;;;;;;4.28;1.50;;;;;;;31.28;27.02;100529.84;10586138;28;20425;-73
2023/07/07 10:15:42;;;;;;;1.85;1.27;;;;;;;31.82;25.30;100530.06;10584593;28;20085;-73
2023/07/07 10:20:44;;;;;;;3.33;1.67;;;;;;;32.31;24.92;100531.78;10585517;28;20443;-73
2023/07/07 10:25:46;;;;;;;1.55;1.30;;;;;;;32.25;24.61;100530.63;10584381;28;20052;-73
2023/07/07 10:30:48;;;;;;;1.38;1.00;;;;;;;31.67;25.62;100528.28;10583736;28;20047;-73
2023/07/07 10:35:50;;;;;;;1.95;1.75;;;;;;;31.90;23.68;100530.09;10549106;28;20106;-73
2023/07/07 10:40:53;;;;;;;3.22;1.40;;;;;;;32.03;27.46;100525.97;10584188;28;20043;-74
2023/07/07 10:45:55;;;;;;;2.08;1.35;;;;;;;32.26;25.89;100528.75;10564939;28;20077;-73
2023/07/07 10:51:01;;;;;;;2.70;1.25;;;;;;;33.14;24.64;100536.56;10588387;28;20036;-73
2023/07/07 10:56:03;;;;;;;3.00;1.67;;;;;;;33.06;24.60;100529.28;10590844;28;20047;-72
2023/07/07 11:01:24;;;;;;;2.47;1.38;;;;;;;33.60;25.43;100522.84;10590362;28;20035;-72
2023/07/07 11:06:59;;;;;;;2.08;1.23;;;;;;;33.49;26.11;100523.34;10571283;28;20493;-72
2023/07/07 11:12:26;;;;;;;3.67;1.65;;;;;;;33.23;26.73;100518.25;10571487;28;20386;-72
2023/07/07 11:17:55;;;;;;;2.55;1.35;;;;;;;33.12;24.90;100520.41;10589689;28;20052;-73
2023/07/07 11:23:03;;;;;;;1.55;1.45;;;;;;;33.03;24.74;100512.50;10589917;28;20092;-73
2023/07/07 11:28:24;;;;;;;1.83;1.52;;;;;;;32.59;24.64;100510.41;10570681;28;20085;-73
2023/07/07 11:34:01;;;;;;;3.45;1.50;;;;;;;32.84;25.98;100508.34;10588171;28;20031;-73
2023/07/07 11:39:21;;;;;;;2.80;1.80;;;;;;;32.73;26.88;100500.63;10503109;28;20117;-73
2023/07/07 11:44:41;;;;;;;1.95;1.52;;;;;;;32.60;25.42;100501.22;10571223;28;20064;-73
2023/07/07 11:49:55;;;;;;;1.58;1.25;;;;;;;31.97;25.36;100494.06;10588117;28;20036;-73
2023/07/07 11:55:16;;;;;;;2.03;1.55;;;;;;;32.69;26.16;100477.50;10586995;28;20039;-73
2023/07/07 12:00:43;;;;;;;1.85;1.42;;;;;;;32.83;24.98;100476.72;10586377;28;20040;-73
2023/07/07 12:05:47;;;;;;;4.70;1.75;;;;;;;32.83;24.93;100476.72;10558721;28;20138;-73
2023/07/07 12:10:55;;;;;;;3.83;1.73;;;;;;;32.84;26.09;100472.94;10585984;28;20404;-71
2023/07/07 12:16:09;;;;;;;2.70;1.40;;;;;;;32.88;25.52;100474.28;10595434;27;20110;-73
2023/07/07 12:21:16;;;;;;;4.83;1.60;;;;;;;31.81;25.68;100460.44;10617526;27;20094;-72
2023/07/07 12:26:34;;;;;;;2.75;1.50;;;;;;;32.39;26.79;100463.75;10627490;27;20047;-72
2023/07/07 12:31:38;;;;;;;1.48;1.38;;;;;;;32.88;25.61;100455.22;10614773;27;20039;-73
2023/07/07 12:36:40;;;;;;;4.47;1.52;;;;;;;32.75;25.86;100446.81;10566294;28;20035;-72
2023/07/07 12:41:41;;;;;;;2.05;1.70;;;;;;;32.84;24.93;100449.28;10584423;28;20090;-72
2023/07/07 12:46:44;;;;;;;1.80;1.48;;;;;;;32.13;27.70;100443.13;10583918;28;20043;-72
2023/07/07 12:51:54;;;;;;;1.40;1.30;;;;;;;32.56;25.93;100443.56;10604097;27;20043;-72
2023/07/07 12:57:25;;;;;;;2.08;1.77;;;;;;;32.03;26.28;100438.97;10626073;27;20074;-72
2023/07/07 13:02:27;;;;;;;2.20;1.15;;;;;;;31.81;26.83;100441.41;10625429;27;20039;-71
2023/07/07 13:07:31;;;;;;;2.58;1.58;;;;;;;32.49;25.07;100434.44;10625444;27;20047;-72
2023/07/07 13:12:39;;;;;;;;;;;;;;;32.50;25.84;100427.13;10625329;27;20035;-71
2023/07/07 13:17:41;;;;;;;1.45;1.30;;;;;;;32.68;26.96;100424.09;10625456;27;20403;-72
2023/07/07 13:22:52;;;;;;;2.35;1.40;;;;;;;32.75;24.88;100425.88;10614493;27;20093;-72
2023/07/07 13:27:54;;;;;;;2.13;1.80;;;;;;;32.15;24.70;100422.06;10565555;28;20078;-72
2023/07/07 13:32:55;;;;;;;1.73;1.63;;;;;;;32.06;25.47;100425.00;10581929;28;20039;-72
2023/07/07 13:38:14;;;;;;;1.60;1.50;;;;;;;32.02;26.55;100416.38;10581878;28;20074;-75
2023/07/07 13:43:37;;;;;;;3.15;1.33;;;;;;;31.86;26.33;100432.75;10582808;28;20123;-73
2023/07/07 13:48:46;;;;;;;1.67;1.58;;;;;;;31.10;26.40;100425.97;10583613;28;20063;-73
2023/07/07 13:53:48;;;;;;;1.98;1.45;;;;;;;31.21;26.45;100422.91;10583803;28;20059;-75
2023/07/07 13:58:52;;;;;;;1.98;1.30;;;;;;;31.42;25.29;100407.94;10583467;28;20050;-73
2023/07/07 14:03:58;;;;;;;2.55;1.60;;;;;;;31.73;25.19;100406.09;10582353;28;20036;-73
2023/07/07 14:09:01;;;;;;;3.35;1.65;;;;;;;31.08;25.76;100406.31;10582757;28;20051;-73
2023/07/07 14:14:03;;;;;;;2.38;1.55;;;;;;;30.76;25.93;100401.75;10583443;28;20089;-74
2023/07/07 14:19:13;;;;;;;5.05;1.40;;;;;;;31.04;26.20;100399.53;10582144;28;20097;-74
2023/07/07 14:24:21;;;;;;;2.63;1.50;;;;;;;30.85;25.52;100401.56;10611002;27;20035;-73
2023/07/07 14:29:36;;;;;;;2.33;1.60;;;;;;;31.13;25.43;100391.19;10632586;27;20515;-74
2023/07/07 14:34:49;;;;;;;;;;;;;;;31.56;25.93;100389.00;10632897;27;20039;-74
2023/07/07 14:39:51;;;;;;;2.10;1.73;;;;;;;31.39;24.78;100393.69;10632228;27;19955;-73
2023/07/07 14:44:54;;;;;;;1.85;1.65;;;;;;;31.68;24.99;100392.19;10614368;27;20043;-73
2023/07/07 14:50:02;;;;;;;2.15;1.45;;;;;;;31.47;25.33;100376.50;10632997;27;20441;-72
2023/07/07 14:55:12;;;;;;;2.08;1.50;;;;;;;31.80;24.38;100384.50;10631755;27;20115;-75
2023/07/07 15:00:28;;;;;;;5.32;1.40;;;;;;;30.96;25.14;100389.53;10631624;27;20043;-75
2023/07/07 15:05:33;;;;;;;2.20;1.48;;;;;;;31.68;24.36;100385.91;10631334;27;20043;-74
2023/07/07 15:10:37;;;;;;;;;;;;;;;32.12;24.92;100388.94;10631725;27;20051;-75
2023/07/07 15:15:39;;;;;;;2.43;1.50;;;;;;;31.83;23.85;100378.72;10631491;27;19919;-73
2023/07/07 15:20:42;;;;;;;2.13;1.58;;;;;;;31.13;25.31;100376.75;10631159;27;20043;-75
2023/07/07 15:25:45;;;;;;;1.75;1.52;;;;;;;31.17;24.27;100369.97;10631156;27;20049;-74
2023/07/07 15:30:46;;;;;;;3.10;1.45;;;;;;;32.26;23.23;100368.25;10632208;27;20055;-73
2023/07/07 15:35:48;;;;;;;1.70;1.40;;;;;;;31.75;23.80;100363.31;10630124;27;20401;-74
2023/07/07 15:40:51;;;;;;;1.83;1.58;;;;;;;32.18;24.05;100363.72;10629679;27;20042;-71
2023/07/07 15:45:52;;;;;;;1.92;1.40;;;;;;;32.17;24.30;100353.88;10630417;27;20058;-71
2023/07/07 15:50:55;;;;;;;1.63;1.50;;;;;;;32.63;23.76;100351.16;10630652;27;20378;-72
2023/07/07 15:56:00;;;;;;;1.70;1.50;;;;;;;31.80;24.92;100346.47;10629565;27;20066;-72
2023/07/07 16:01:02;;;;;;;2.13;1.55;;;;;;;32.93;22.83;100348.50;10630804;27;20437;-72
2023/07/07 16:06:04;;;;;;;1.73;1.63;;;;;;;32.55;23.35;100343.06;10628990;27;20035;-73
2023/07/07 16:11:14;;;;;;;2.97;1.83;;;;;;;31.78;23.86;100343.06;10629844;27;20051;-72
2023/07/07 16:16:18;;;;;;;1.90;1.42;;;;;;;31.95;23.49;100339.25;10628946;27;20035;-73
2023/07/07 16:21:23;;;;;;;1.98;1.45;;;;;;;31.33;24.33;100341.91;10629255;27;20420;-73
2023/07/07 16:26:28;;;;;;;2.15;1.60;;;;;;;31.24;24.37;100346.50;10628572;27;20084;-72
2023/07/07 16:31:30;;;;;;;1.95;1.60;;;;;;;30.83;25.07;100338.47;10592435;27;20516;-73
2023/07/07 16:36:32;;;;;;;2.08;1.35;;;;;;;30.67;25.30;100338.47;10627412;27;20099;-72
2023/07/07 16:41:33;;;;;;;2.03;1.52;;;;;;;30.29;25.92;100329.16;10627523;27;20043;-72
2023/07/07 16:46:35;;;;;;;2.17;1.67;;;;;;;29.63;26.52;100336.31;10626061;27;20050;-72
2023/07/07 16:51:37;;;;;;;2.20;1.80;;;;;;;29.55;26.91;100330.81;10626639;27;20074;-72
2023/07/07 16:56:41;;;;;;;1.63;1.52;;;;;;;29.53;27.07;100333.72;10626095;27;20047;-73
2023/07/07 17:01:44;;;;;;;2.33;1.88;;;;;;;28.99;27.75;100338.50;10626690;27;20043;-72
2023/07/07 17:06:46;;;;;;;3.28;2.47;;;;;;;28.87;27.29;100343.34;10627217;27;20104;-72
2023/07/07 17:11:48;;;;;;;3.53;1.20;;;;;;;28.83;26.66;100349.22;10626982;27;20113;-72
2023/07/07 17:16:50;;;;;;;2.90;1.52;;;;;;;28.89;27.17;100344.00;10627997;27;20568;-72
2023/07/07 17:21:53;;;;;;;2.17;1.70;;;;;;;28.59;27.86;100344.47;10627811;27;20046;-73
2023/07/07 17:26:55;;;;;;;2.25;1.40;;;;;;;28.37;27.76;100346.66;10627535;27;20062;-72
2023/07/07 17:31:58;;;;;;;2.92;1.60;;;;;;;28.35;27.70;100342.44;10627775;27;20041;-72
2023/07/07 17:37:00;;;;;;;2.53;1.85;;;;;;;28.09;27.93;100331.53;10627821;27;20051;-72
2023/07/07 17:42:02;;;;;;;2.10;1.70;;;;;;;28.03;28.22;100329.44;10628058;28;20035;-72
2023/07/07 17:47:04;;;;;;;2.13;1.65;;;;;;;28.13;28.44;100328.34;10627981;28;20043;-72
2023/07/07 17:52:07;;;;;;;2.47;1.95;;;;;;;28.01;28.78;100329.56;10630013;28;20130;-72
2023/07/07 17:57:09;;;;;;;1.75;1.65;;;;;;;27.84;29.15;100338.53;10629455;27;20108;-72
2023/07/07 18:02:11;;;;;;;2.40;1.38;;;;;;;27.74;28.59;100327.78;10634975;27;20059;-73
2023/07/07 18:07:13;;;;;;;4.22;1.52;;;;;;;27.62;28.83;100331.66;10634803;27;20084;-71
2023/07/07 18:12:15;;;;;;;2.05;1.40;;;;;;;27.40;28.90;100327.53;10635242;27;20516;-72
2023/07/07 18:17:17;;;;;;;2.35;1.50;;;;;;;27.48;28.56;100330.31;10634744;27;20053;-71
2023/07/07 18:22:39;;;;;;;3.20;2.90;;;;;;;27.37;28.95;100330.53;10635543;27;20031;-72
2023/07/07 18:27:41;;;;;;;2.92;2.47;;;;;;;27.12;29.48;100337.47;10615614;27;20526;-72
2023/07/07 18:32:43;;;;;;;3.55;2.40;;;;;;;26.87;29.61;100338.91;10637626;27;20400;-72
2023/07/07 18:37:45;;;;;;;1.92;1.73;;;;;;;26.91;30.22;100343.88;10635345;27;20039;-73
2023/07/07 18:42:49;;;;;;;2.90;2.30;;;;;;;26.74;32.41;100350.03;10634786;27;20550;-72
2023/07/07 18:47:58;;;;;;;3.97;3.28;;;;;;;26.51;34.58;100346.78;10616889;27;20138;-72
2023/07/07 18:53:01;;;;;;;2.17;1.98;;;;;;;26.34;32.77;100353.75;10598055;27;20051;-73
2023/07/07 18:58:08;;;;;;;3.88;2.97;;;;;;;26.20;34.90;100350.59;10633038;27;20062;-73
2023/07/07 19:03:11;;;;;;;2.85;2.53;;;;;;;25.93;33.03;100357.53;10633313;27;20134;-72
2023/07/07 19:08:14;;;;;;;3.72;3.00;;;;;;;25.88;35.67;100362.50;10632850;27;20386;-73
2023/07/07 19:13:18;;;;;;;3.67;2.53;;;;;;;25.60;37.46;100366.78;10634188;27;20031;-72
2023/07/07 19:18:35;;;;;;;3.25;2.25;;;;;;;25.38;37.88;100366.00;10631863;27;20047;-72
2023/07/07 19:23:37;;;;;;;2.88;2.50;;;;;;;24.94;38.96;100371.72;10631284;27;20035;-71
2023/07/07 19:28:39;;;;;;;4.85;2.38;;;;;;;24.75;39.53;100370.63;10631621;27;20118;-72
2023/07/07 19:33:41;;;;;;;2.67;2.40;;;;;;;24.53;39.36;100381.50;10631935;27;20046;-72
2023/07/07 19:38:46;;;;;;;3.90;2.47;;;;;;;24.19;40.44;100378.06;10631106;27;20110;-73
2023/07/07 19:43:50;;;;;;;7.25;2.97;;;;;;;23.77;42.02;100380.59;10612897;27;20039;-73
2023/07/07 19:48:53;;;;;;;3.58;2.63;;;;;;;23.92;40.99;100376.66;10632230;27;20058;-72
2023/07/07 19:53:59;;;;;;;3.10;2.58;;;;;;;23.70;40.92;100385.63;10613050;27;20035;-73
2023/07/07 19:59:01;;;;;;;3.05;2.53;;;;;;;23.47;42.20;100384.75;10630419;27;20100;-72
2023/07/07 20:04:03;;;;;;;4.15;2.80;;;;;;;23.24;42.51;100388.41;10631392;27;20038;-73
2023/07/07 20:09:25;;;;;;;3.60;2.85;;;;;;;23.32;42.29;100392.19;10611594;27;20074;-73
2023/07/07 20:14:27;;;;;;;3.15;2.85;;;;;;;23.05;43.53;100397.03;10631066;27;20042;-73
2023/07/07 20:19:29;;;;;;;4.45;3.67;;;;;;;22.83;44.20;100385.28;10629599;27;20100;-72
2023/07/07 20:24:31;;;;;;;4.18;2.40;;;;;;;22.57;44.59;100383.75;10630184;27;20047;-72
2023/07/07 20:29:32;;;;;;;3.35;2.97;;;;;;;22.35;45.18;100385.34;10629478;27;20054;-72
2023/07/07 20:34:34;;;;;;;3.40;3.10;;;;;;;22.20;45.58;100388.34;10629818;27;20062;-72
2023/07/07 20:39:36;;;;;;;2.80;2.58;;;;;;;22.12;46.16;100394.25;10627814;27;20468;-72
2023/07/07 20:44:39;;;;;;;3.28;2.80;;;;;;;22.30;46.23;100392.88;10629102;27;20043;-71
2023/07/07 20:49:41;;;;;;;3.67;3.38;;;;;;;22.00;47.17;100401.38;10627995;27;20104;-72
2023/07/07 20:54:43;;;;;;;3.85;3.05;;;;;;;21.91;47.04;100402.91;10627178;27;20062;-71
2023/07/07 20:59:46;;;;;;;3.85;3.45;;;;;;;21.92;47.13;100401.94;10627602;27;20485;-72
2023/07/07 21:04:48;;;;;;;4.43;3.50;;;;;;;21.77;47.61;100404.84;10627565;27;20485;-72
2023/07/07 21:09:50;;;;;;;6.88;4.07;;;;;;;21.41;48.95;100411.88;10627296;27;20048;-72
2023/07/07 21:14:52;;;;;;;3.30;3.00;;;;;;;21.21;49.84;100417.75;10627278;27;20107;-72
2023/07/07 21:19:53;;;;;;;4.75;3.25;;;;;;;21.34;51.28;100416.81;10607915;27;20047;-72
2023/07/07 21:24:55;;;;;;;3.95;3.20;;;;;;;21.29;51.33;100410.88;10626404;27;20076;-72
2023/07/07 21:29:58;;;;;;;3.92;3.03;;;;;;;21.03;51.23;100415.41;10626342;27;20069;-72
2023/07/07 21:34:59;;;;;;;3.55;3.25;;;;;;;21.23;50.72;100418.50;10625414;27;20040;-72
2023/07/07 21:40:09;;;;;;;3.63;3.33;;;;;;;21.02;50.33;100420.81;10607855;28;20560;-72
2023/07/07 21:45:14;;;;;;;3.95;3.35;;;;;;;20.75;51.11;100421.75;10627124;28;20035;-73
2023/07/07 21:50:16;;;;;;;3.92;3.55;;;;;;;20.73;51.89;100422.84;10628138;28;20074;-73
2023/07/07 21:55:20;;;;;;;4.32;3.45;;;;;;;20.47;52.41;100422.75;10628110;28;20039;-72
2023/07/07 22:00:28;;;;;;;4.13;3.72;;;;;;;20.46;53.18;100423.69;10626903;28;20046;-72
2023/07/07 22:05:30;;;;;;;5.53;3.20;;;;;;;20.53;53.63;100418.81;10626910;28;20038;-72
2023/07/07 22:10:38;;;;;;;5.18;4.55;;;;;;;20.25;54.14;100420.63;10626783;28;20046;-71
2023/07/07 22:15:40;;;;;;;7.47;5.07;;;;;;;20.19;54.56;100415.72;10626903;28;20037;-72
2023/07/07 22:20:44;;;;;;;4.20;3.90;;;;;;;20.06;55.01;100422.81;10625917;28;20122;-72
2023/07/07 22:25:46;;;;;;;4.40;4.00;;;;;;;19.81;56.36;100415.50;10625268;28;20035;-72
2023/07/07 22:30:52;;;;;;;4.30;3.72;;;;;;;19.81;57.20;100416.38;10626292;28;20043;-71
2023/07/07 22:35:54;;;;;;;;;;;;;;;19.74;57.82;100420.38;10626683;28;20031;-71
2023/07/07 22:40:57;;;;;;;5.60;3.67;;;;;;;19.56;58.30;100409.03;10607825;28;19983;-71
2023/07/07 22:46:01;;;;;;;3.22;2.92;;;;;;;19.34;59.34;100419.31;10630126;27;20062;-71
2023/07/07 22:51:09;;;;;;;5.40;3.00;;;;;;;19.19;59.62;100415.81;10632765;27;20097;-71
2023/07/07 22:56:19;;;;;;;4.07;3.08;;;;;;;19.01;60.89;100417.78;10633242;27;20050;-71
2023/07/07 23:01:22;;;;;;;3.55;3.25;;;;;;;19.00;61.17;100413.41;10633395;27;20130;-71
2023/07/07 23:06:24;;;;;;;3.60;2.92;;;;;;;18.89;61.15;100413.19;10632126;27;20457;-71
2023/07/07 23:11:26;;;;;;;3.88;3.42;;;;;;;19.25;60.98;100409.22;10632456;27;20047;-72
2023/07/07 23:16:27;;;;;;;4.03;3.63;;;;;;;19.13;61.22;100410.88;10612905;27;20072;-71
2023/07/07 23:21:29;;;;;;;4.38;3.13;;;;;;;19.05;61.17;100413.13;10631149;27;20035;-71
2023/07/07 23:26:31;;;;;;;3.30;2.95;;;;;;;18.88;62.50;100398.16;10631068;27;20039;-71
2023/07/07 23:31:35;;;;;;;3.95;3.55;;;;;;;18.86;62.47;100398.28;10631627;27;20099;-71